Time;durP1;ratioP1;P1;durP2;ratioP2;P2;SDS_P1;SDS_P2;PMS_P1;PMS_P2;Temp;Humidity;BMP_temperature;BMP_pressure;BME280_temperature;BME280_humidity;BME280_pressure;Samples;Min_cycle;Max_cycle;Signal;HPM_P1;HPM_P2
2022/12/22 03:26:23;;;;;;;7.07;4.80;;;;;;;5.27;75.33;99723.47;4923819;28;97288;-81
2022/12/22 03:28:48;;;;;;;7.60;4.63;;;;;;;5.27;75.58;99715.69;4917143;28;100943;-82
2022/12/22 03:31:14;;;;;;;6.93;4.70;;;;;;;5.31;75.80;99720.75;4932361;28;101630;-82
2022/12/22 03:33:40;;;;;;;9.80;4.80;;;;;;;5.22;76.27;99716.59;4902481;28;97056;-81
2022/12/22 03:36:06;;;;;;;5.93;4.37;;;;;;;5.20;76.43;99707.13;4922144;28;97207;-86
2022/12/22 03:38:32;;;;;;;6.60;4.53;;;;;;;5.24;76.31;99718.34;4909493;28;101660;-81
2022/12/22 03:40:58;;;;;;;6.03;4.27;;;;;;;5.12;76.63;99688.22;4927934;28;101678;-83
2022/12/22 03:46:29;;;;;;;7.13;4.67;;;;;;;5.17;77.05;99704.59;4944665;28;97835;-82
2022/12/22 03:49:09;;;;;;;6.43;4.33;;;;;;;5.10;77.28;99682.22;4933418;28;101318;-81
2022/12/22 03:51:43;;;;;;;7.20;4.50;;;;;;;5.17;77.63;99694.19;4931517;28;101598;-81
2022/12/22 03:54:10;;;;;;;6.70;4.47;;;;;;;5.18;77.68;99695.91;4903762;28;97982;-82
2022/12/22 03:56:36;;;;;;;4.90;3.93;;;;;;;5.15;78.25;99698.59;4952320;28;96872;-81
2022/12/22 03:59:03;;;;;;;6.20;4.33;;;;;;;5.03;78.55;99675.41;4950372;28;101421;-80
2022/12/22 04:01:29;;;;;;;5.57;4.53;;;;;;;5.19;78.36;99695.88;4923568;28;98042;-84
2022/12/22 04:03:54;;;;;;;6.20;4.50;;;;;;;5.05;78.31;99661.47;4918302;28;96974;-82
2022/12/22 04:06:20;;;;;;;8.10;5.03;;;;;;;5.19;78.58;99685.44;4907431;28;97082;-81
2022/12/22 04:08:45;;;;;;;7.70;5.27;;;;;;;5.22;78.37;99679.31;4925262;28;100116;-81
2022/12/22 04:13:56;;;;;;;6.83;4.77;;;;;;;5.24;78.39;99666.31;4917518;28;97635;-81
2022/12/22 04:16:22;;;;;;;7.93;5.40;;;;;;;5.27;78.57;99672.28;4923301;28;97079;-81
2022/12/22 04:18:48;;;;;;;6.60;4.93;;;;;;;5.35;78.46;99683.38;4982779;28;97812;-81
2022/12/22 04:21:14;;;;;;;9.60;6.23;;;;;;;5.46;78.26;99690.91;4925391;28;101370;-81
2022/12/22 04:23:39;;;;;;;7.33;5.07;;;;;;;5.40;78.24;99683.25;4915475;28;97965;-81
2022/12/22 04:26:05;;;;;;;7.77;4.90;;;;;;;5.39;78.34;99685.00;4937524;28;97082;-81
2022/12/22 04:28:31;;;;;;;8.47;5.53;;;;;;;5.42;78.37;99686.69;4957755;28;101472;-81
2022/12/22 04:30:56;;;;;;;10.80;5.77;;;;;;;5.42;78.13;99681.47;4948323;28;101396;-81
2022/12/22 04:33:22;;;;;;;35.60;18.33;;;;;;;5.39;78.12;99666.78;4989919;28;97034;-81
2022/12/22 04:35:48;;;;;;;10.07;6.23;;;;;;;5.52;78.13;99669.09;4972567;28;97070;-81
2022/12/22 04:38:13;;;;;;;12.33;7.17;;;;;;;5.48;77.47;99639.69;4945787;28;101462;-81
2022/12/22 04:40:39;;;;;;;7.70;5.63;;;;;;;5.46;78.15;99649.28;4925658;28;101488;-84
2022/12/22 04:43:05;;;;;;;7.20;5.50;;;;;;;5.51;78.11;99659.59;4909846;28;97930;-82
2022/12/22 04:45:30;;;;;;;11.03;6.70;;;;;;;5.51;77.99;99649.16;4949756;28;97113;-82
2022/12/22 04:47:56;;;;;;;6.73;5.37;;;;;;;5.43;78.46;99639.78;4918007;28;101504;-81
2022/12/22 04:50:21;;;;;;;9.33;6.57;;;;;;;5.49;78.75;99643.13;4931492;28;101694;-81
2022/12/22 04:52:47;;;;;;;12.67;8.13;;;;;;;5.42;78.31;99638.09;4969183;28;96823;-81
2022/12/22 04:55:13;;;;;;;18.23;10.73;;;;;;;5.38;78.39;99622.56;4964268;28;97663;-82
2022/12/22 04:57:38;;;;;;;14.90;8.93;;;;;;;5.45;78.72;99640.59;4939543;28;101324;-82
2022/12/22 05:00:05;;;;;;;18.43;10.60;;;;;;;5.50;78.60;99650.03;4940977;28;101455;-81
2022/12/22 05:02:30;;;;;;;15.83;9.60;;;;;;;5.54;78.45;99647.34;4928944;28;97131;-81
2022/12/22 05:04:56;;;;;;;19.10;10.30;;;;;;;5.54;77.96;99638.69;4955413;28;97159;-81
2022/12/22 05:07:21;;;;;;;18.73;9.83;;;;;;;5.60;78.05;99647.19;4938138;28;102123;-82
2022/12/22 05:09:47;;;;;;;15.13;8.83;;;;;;;5.59;78.17;99640.28;4934736;28;100709;-82
2022/12/22 05:14:56;;;;;;;21.17;10.43;;;;;;;5.70;77.74;99647.81;4938050;28;97035;-81
2022/12/22 05:17:22;;;;;;;26.53;12.20;;;;;;;5.67;77.67;99642.69;4920593;28;101184;-81
2022/12/22 05:19:47;;;;;;;36.13;15.53;;;;;;;5.43;77.97;99592.94;4955436;28;101008;-81
2022/12/22 05:22:13;;;;;;;23.97;12.30;;;;;;;5.66;78.02;99630.56;4935184;28;99966;-81
2022/12/22 05:24:38;;;;;;;19.77;10.70;;;;;;;5.72;77.72;99626.94;4924422;28;97292;-81
2022/12/22 05:27:04;;;;;;;17.23;9.30;;;;;;;5.71;78.42;99617.44;4938741;28;101689;-81
2022/12/22 05:29:30;;;;;;;8.07;6.07;;;;;;;5.65;78.29;99621.91;4962975;28;101103;-81
2022/12/22 05:31:55;;;;;;;8.77;6.37;;;;;;;5.66;78.38;99610.59;4950937;28;96990;-81
2022/12/22 05:34:21;;;;;;;8.97;6.70;;;;;;;5.65;78.72;99610.63;4943276;28;97134;-83
2022/12/22 05:36:46;;;;;;;11.47;6.57;;;;;;;5.67;79.09;99617.53;4913460;28;101643;-82
2022/12/22 05:39:12;;;;;;;9.20;6.10;;;;;;;5.63;78.98;99618.47;4964294;28;101670;-82
2022/12/22 05:41:37;;;;;;;11.63;7.47;;;;;;;5.68;79.02;99624.44;4927654;28;98068;-84
2022/12/22 05:44:03;;;;;;;9.37;5.93;;;;;;;5.72;79.09;99622.59;4952847;28;97114;-81
2022/12/22 05:46:28;;;;;;;8.60;6.03;;;;;;;5.76;79.41;99625.97;4918166;28;101533;-82
2022/12/22 05:48:54;;;;;;;8.57;6.03;;;;;;;5.76;79.11;99611.22;4959142;28;98014;-82
2022/12/22 05:51:19;;;;;;;8.43;5.97;;;;;;;5.73;79.07;99602.59;4945392;28;97240;-81
2022/12/22 05:53:45;;;;;;;7.57;6.03;;;;;;;5.70;79.30;99589.66;4949281;28;96928;-81
2022/12/22 05:56:11;;;;;;;8.87;6.60;;;;;;;5.74;79.38;99589.56;4966782;28;101363;-87
2022/12/22 05:58:37;;;;;;;9.77;6.80;;;;;;;5.73;79.67;99595.69;4965947;28;101805;-81
2022/12/22 06:01:03;;;;;;;11.13;7.00;;;;;;;5.71;80.16;99596.59;4899697;28;97220;-81
2022/12/22 06:03:29;;;;;;;8.60;7.13;;;;;;;5.67;79.91;99594.09;4936903;28;97749;-82
2022/12/22 06:05:55;;;;;;;8.67;6.43;;;;;;;5.77;80.09;99586.03;4918285;28;100948;-86
2022/12/22 06:08:21;;;;;;;9.03;6.60;;;;;;;5.68;80.24;99574.09;4910004;28;101505;-83
2022/12/22 06:10:46;;;;;;;10.60;7.30;;;;;;;5.80;80.03;99593.75;4896794;28;97017;-81
2022/12/22 06:13:12;;;;;;;9.93;7.10;;;;;;;5.70;79.96;99587.06;4921344;28;97898;-87
2022/12/22 06:15:38;;;;;;;7.90;6.23;;;;;;;5.82;79.95;99595.44;4942711;28;101515;-81
2022/12/22 06:18:03;;;;;;;9.97;7.23;;;;;;;5.89;79.50;99591.75;4964665;28;101424;-81
2022/12/22 06:20:29;;;;;;;10.00;6.90;;;;;;;5.83;79.83;99588.47;4932685;28;97205;-81
2022/12/22 06:22:54;;;;;;;9.60;6.67;;;;;;;5.87;79.57;99584.88;4933756;28;97540;-82
2022/12/22 06:25:20;;;;;;;8.53;6.57;;;;;;;5.87;79.76;99571.84;4926356;28;101409;-81
2022/12/22 06:27:46;;;;;;;9.43;6.23;;;;;;;5.84;80.03;99572.78;4956375;28;101498;-81
2022/12/22 06:30:12;;;;;;;10.73;7.80;;;;;;;5.90;79.53;99582.19;4942797;28;96731;-86
2022/12/22 06:32:38;;;;;;;10.30;6.90;;;;;;;5.87;79.99;99579.66;4955183;28;98091;-82
2022/12/22 06:35:05;;;;;;;9.23;7.17;;;;;;;5.85;79.96;99571.91;4936049;28;101148;-81
2022/12/22 06:37:30;;;;;;;10.60;7.13;;;;;;;5.82;79.86;99574.59;4908279;28;98596;-81
2022/12/22 06:39:56;;;;;;;10.93;7.43;;;;;;;5.92;80.00;99579.56;4917278;28;97765;-82
2022/12/22 06:45:06;;;;;;;10.30;7.30;;;;;;;5.98;79.66;99574.22;4928993;28;100843;-81
2022/12/22 06:47:31;;;;;;;8.37;6.77;;;;;;;6.01;79.46;99576.72;4917876;28;101652;-81
2022/12/22 06:49:57;;;;;;;8.10;6.40;;;;;;;5.82;79.52;99556.38;4933991;28;96788;-81
2022/12/22 06:52:23;;;;;;;9.17;7.30;;;;;;;6.03;79.09;99567.13;4932732;28;97939;-81
2022/12/22 06:54:48;;;;;;;11.03;6.63;;;;;;;6.01;79.73;99563.69;4906722;28;101328;-81
2022/12/22 06:57:14;;;;;;;10.60;6.97;;;;;;;6.07;79.34;99569.59;4936303;28;101519;-87
2022/12/22 06:59:39;;;;;;;9.93;7.00;;;;;;;6.06;79.65;99570.50;4963391;28;96757;-82
2022/12/22 07:02:05;;;;;;;10.10;7.47;;;;;;;5.98;79.13;99551.63;4954109;28;96808;-81
2022/12/22 07:04:31;;;;;;;10.90;7.20;;;;;;;6.01;79.84;99553.28;4919948;28;101473;-82
2022/12/22 07:06:56;;;;;;;10.97;7.43;;;;;;;6.05;79.56;99565.31;4957638;28;101236;-82
2022/12/22 07:09:22;;;;;;;14.53;8.67;;;;;;;5.96;79.41;99536.91;4939453;28;97440;-82
2022/12/22 07:11:47;;;;;;;13.50;8.93;;;;;;;6.16;79.00;99565.03;4912349;28;98522;-82
2022/12/22 07:14:13;;;;;;;17.50;9.60;;;;;;;6.21;79.01;99565.75;4941544;28;97766;-88
2022/12/22 07:16:38;;;;;;;13.33;9.60;;;;;;;6.22;78.58;99559.63;4940992;28;101308;-83
2022/12/22 07:19:04;;;;;;;15.30;10.80;;;;;;;6.19;78.67;99550.16;4924128;28;97146;-81
2022/12/22 07:21:30;;;;;;;13.83;8.80;;;;;;;6.20;78.44;99538.00;4962114;28;97134;-81
2022/12/22 07:23:55;;;;;;;13.80;9.17;;;;;;;6.21;78.11;99539.69;4964306;28;101044;-81
2022/12/22 07:26:21;;;;;;;16.33;9.97;;;;;;;6.10;78.46;99543.44;4924138;28;101755;-85
2022/12/22 07:28:46;;;;;;;18.33;11.27;;;;;;;6.03;78.78;99539.31;4916528;28;97544;-82
2022/12/22 07:31:13;;;;;;;13.23;9.17;;;;;;;6.04;78.58;99547.97;4939069;28;97025;-82
2022/12/22 07:33:39;;;;;;;12.90;9.37;;;;;;;6.04;79.25;99548.84;4931171;28;101671;-81
2022/12/22 07:36:11;;;;;;;13.80;9.70;;;;;;;5.98;78.77;99522.94;4945958;28;97842;-81
2022/12/22 07:38:38;;;;;;;;;;;;;;;6.06;78.75;99530.56;4928327;28;97915;-83
2022/12/22 07:42:43;;;;;;;15.40;10.17;;;;;;;6.05;79.03;99508.00;4933048;28;97623;-82
2022/12/22 07:43:56;;;;;;;16.03;9.67;;;;;;;6.22;78.73;99524.00;4933973;28;101038;-84
2022/12/22 07:46:23;;;;;;;15.03;9.47;;;;;;;6.33;77.95;99523.69;4936623;28;100244;-84
2022/12/22 07:51:34;;;;;;;14.87;9.87;;;;;;;6.40;77.53;99514.81;4953981;28;96855;-82
2022/12/22 07:53:59;;;;;;;14.57;9.97;;;;;;;6.37;77.75;99512.31;4928364;28;97430;-83
2022/12/22 07:56:25;;;;;;;16.77;10.27;;;;;;;6.33;77.78;99519.34;4908599;28;101651;-82
2022/12/22 07:58:50;;;;;;;14.80;10.37;;;;;;;6.11;77.76;99476.56;4917803;28;97714;-87
2022/12/22 08:01:16;;;;;;;15.97;10.93;;;;;;;6.23;77.96;99496.22;4938254;28;97237;-88
2022/12/22 08:03:42;;;;;;;14.77;10.73;;;;;;;6.21;77.93;99485.81;4945337;28;101655;-81
2022/12/22 08:06:07;;;;;;;17.67;11.03;;;;;;;6.26;77.52;99489.16;4910385;28;101988;-80
2022/12/22 08:08:33;;;;;;;20.73;11.57;;;;;;;6.33;77.91;99489.81;4928420;28;96809;-82
2022/12/22 08:11:03;;;;;;;21.13;12.40;;;;;;;6.32;77.29;99465.50;4928179;28;97027;-82
2022/12/22 08:13:28;;;;;;;19.00;11.07;;;;;;;6.31;77.00;99461.19;4931562;28;101248;-84
2022/12/22 08:15:54;;;;;;;15.80;10.83;;;;;;;6.44;77.34;99479.91;4921416;28;101809;-81
2022/12/22 08:18:20;;;;;;;17.77;10.43;;;;;;;6.65;77.23;99499.25;4946040;28;97393;-81
2022/12/22 08:20:51;;;;;;;16.53;10.00;;;;;;;6.68;75.88;99490.50;4919772;28;97304;-84
2022/12/22 08:23:17;;;;;;;17.67;10.52;;;;;;;6.68;76.34;99483.50;4924975;28;100442;-82
2022/12/22 08:25:44;;;;;;;11.50;7.88;;;;;;;6.69;75.30;99482.63;4953529;28;101783;-80
2022/12/22 08:28:10;;;;;;;12.93;8.47;;;;;;;6.58;75.70;99458.63;4925365;28;97413;-82
2022/12/22 08:30:37;;;;;;;16.85;7.35;;;;;;;6.69;75.31;99472.19;4958631;28;97178;-80
2022/12/22 08:33:02;;;;;;;14.05;8.77;;;;;;;6.70;75.13;99476.50;4930420;28;101317;-83
2022/12/22 08:35:28;;;;;;;8.40;6.53;;;;;;;6.73;75.82;99473.81;4910163;28;101261;-82
2022/12/22 08:37:53;;;;;;;9.63;6.60;;;;;;;6.72;75.10;99466.88;4951311;28;97212;-82
2022/12/22 08:40:22;;;;;;;11.60;7.17;;;;;;;6.76;74.79;99459.81;4944472;28;96789;-83
2022/12/22 08:42:49;;;;;;;10.37;6.27;;;;;;;6.83;74.82;99463.06;4947011;28;101702;-82
2022/12/22 08:45:14;;;;;;;11.33;5.97;;;;;;;6.94;74.50;99456.59;4923382;28;101359;-81
2022/12/22 08:47:40;;;;;;;10.20;6.60;;;;;;;7.05;74.21;99458.00;4914765;28;97298;-79
2022/12/22 08:50:06;;;;;;;11.93;6.93;;;;;;;7.00;73.78;99450.31;4941699;28;98100;-81
2022/12/22 08:52:32;;;;;;;10.47;6.80;;;;;;;7.22;73.66;99445.25;4944875;28;100939;-79
2022/12/22 08:54:57;;;;;;;13.23;7.47;;;;;;;7.22;72.93;99440.88;4914586;28;101178;-79
2022/12/22 08:57:23;;;;;;;10.40;7.00;;;;;;;7.43;72.64;99454.09;4930752;28;97160;-79
2022/12/22 08:59:48;;;;;;;14.40;7.80;;;;;;;7.68;71.98;99452.31;4947420;28;97149;-79
2022/12/22 09:02:14;;;;;;;14.52;7.65;;;;;;;7.86;71.78;99445.56;4951526;28;98037;-78
2022/12/22 09:04:40;;;;;;;11.07;7.07;;;;;;;8.09;70.05;99452.56;4924090;28;101381;-80
2022/12/22 09:07:05;;;;;;;10.27;6.67;;;;;;;8.13;70.13;99443.69;4934688;28;97181;-81
2022/12/22 09:09:33;;;;;;;14.10;7.60;;;;;;;8.14;70.29;99448.03;4946216;28;97180;-79
2022/12/22 09:11:59;;;;;;;10.48;6.53;;;;;;;8.06;69.80;99442.22;4911632;28;101244;-82
2022/12/22 09:14:25;;;;;;;10.60;7.13;;;;;;;7.98;70.19;99440.81;4910236;28;101439;-80
2022/12/22 09:16:52;;;;;;;11.05;6.82;;;;;;;7.98;70.51;99448.66;4923373;28;96979;-81
2022/12/22 09:19:17;;;;;;;11.15;6.50;;;;;;;7.94;70.58;99445.28;4930464;28;96977;-84
2022/12/22 09:21:43;;;;;;;9.77;7.03;;;;;;;7.80;71.18;99431.88;4928843;28;101586;-79
2022/12/22 09:24:09;;;;;;;11.30;7.03;;;;;;;7.78;71.03;99423.25;4923583;28;101540;-79
2022/12/22 09:26:35;;;;;;;9.27;6.70;;;;;;;7.84;70.85;99438.69;4930637;28;97160;-80
2022/12/22 09:29:01;;;;;;;9.57;6.75;;;;;;;7.86;70.85;99442.97;4913843;28;97298;-80
2022/12/22 09:31:27;;;;;;;11.88;5.90;;;;;;;7.83;70.96;99434.38;4908078;28;100666;-80
2022/12/22 09:33:53;;;;;;;11.13;6.55;;;;;;;7.86;71.19;99436.88;4938598;28;101838;-79
2022/12/22 09:36:22;;;;;;;9.75;5.78;;;;;;;7.91;71.25;99424.47;4924818;28;97805;-83
2022/12/22 09:38:48;;;;;;;8.27;5.57;;;;;;;7.82;71.23;99403.91;4946639;28;97193;-81
2022/12/22 09:41:43;;;;;;;9.30;5.97;;;;;;;7.85;71.00;99415.13;4932539;28;101385;-79
2022/12/22 09:44:30;;;;;;;10.45;6.20;;;;;;;7.78;70.79;99403.19;4937423;28;97406;-81
2022/12/22 09:46:59;;;;;;;10.75;6.40;;;;;;;7.77;71.14;99400.66;4896714;28;97298;-80
2022/12/22 09:49:25;;;;;;;9.45;6.00;;;;;;;7.79;71.00;99407.50;4927961;28;96778;-79
2022/12/22 09:51:59;;;;;;;8.83;5.53;;;;;;;7.76;71.06;99397.16;4923051;28;101829;-80
2022/12/22 09:54:25;;;;;;;10.02;6.75;;;;;;;7.74;71.01;99398.13;4923264;28;101251;-79
2022/12/22 09:56:51;;;;;;;9.13;6.20;;;;;;;7.65;71.26;99384.50;4899280;28;97253;-81
2022/12/22 09:59:19;;;;;;;11.25;7.18;;;;;;;7.68;71.67;99380.94;4945337;28;97054;-82
2022/12/22 10:01:59;;;;;;;10.68;6.70;;;;;;;7.69;71.52;99383.47;4891808;28;101835;-79
2022/12/22 10:04:40;;;;;;;12.97;8.00;;;;;;;7.65;72.04;99370.56;4926826;28;101357;-79
2022/12/22 10:07:23;;;;;;;10.37;7.17;;;;;;;7.61;71.61;99371.63;4930648;28;97854;-80
2022/12/22 10:09:49;;;;;;;10.70;7.03;;;;;;;7.65;72.04;99365.34;4926299;28;96830;-79
2022/12/22 10:12:20;;;;;;;11.20;7.10;;;;;;;7.67;71.39;99355.72;4930384;28;101720;-81
2022/12/22 10:14:47;;;;;;;;;;;;;;;7.63;71.83;99360.22;4913456;28;100978;-80
2022/12/22 10:17:24;;;;;;;11.10;6.82;;;;;;;7.69;72.10;99357.34;4944907;28;97148;-80
2022/12/22 10:19:52;;;;;;;9.00;6.07;;;;;;;7.74;71.56;99362.44;4915404;28;96784;-78
2022/12/22 10:22:32;;;;;;;7.73;5.67;;;;;;;7.75;71.42;99351.06;4925942;28;101271;-85
2022/12/22 10:25:02;;;;;;;8.60;5.65;;;;;;;7.66;71.40;99328.75;4946568;28;101367;-85
2022/12/22 10:27:31;;;;;;;9.98;6.85;;;;;;;7.77;71.86;99353.63;4914139;28;97963;-84
2022/12/22 10:30:20;;;;;;;8.02;5.20;;;;;;;7.81;71.46;99358.66;4901544;28;97316;-83
2022/12/22 10:33:04;;;;;;;6.82;5.03;;;;;;;7.71;71.52;99339.03;4930354;28;101833;-85
2022/12/22 10:35:50;;;;;;;8.27;5.38;;;;;;;7.69;72.05;99335.63;4962800;28;97883;-85
2022/12/22 10:38:24;;;;;;;7.72;5.40;;;;;;;7.74;71.88;99335.44;4945494;28;96942;-85
2022/12/22 10:40:58;;;;;;;7.97;6.07;;;;;;;7.72;72.66;99323.28;4935098;28;96794;-84
2022/12/22 10:43:25;;;;;;;11.50;7.10;;;;;;;7.79;72.62;99331.72;4940754;28;101894;-86
2022/12/22 10:45:51;;;;;;;12.32;7.35;;;;;;;7.76;72.81;99333.63;4935889;28;101711;-86
2022/12/22 10:48:25;;;;;;;10.73;6.35;;;;;;;7.75;73.33;99340.59;4943541;28;97077;-86
2022/12/22 10:50:51;;;;;;;9.68;6.38;;;;;;;7.72;73.74;99338.09;4928890;28;97314;-84
2022/12/22 10:53:17;;;;;;;10.27;5.90;;;;;;;7.58;73.40;99309.88;4932736;28;101467;-87
2022/12/22 10:55:43;;;;;;;11.70;6.43;;;;;;;7.72;73.81;99333.72;4935547;28;101599;-86
2022/12/22 10:58:08;;;;;;;10.35;6.80;;;;;;;7.75;74.01;99335.38;4910002;28;97178;-85
2022/12/22 11:00:35;;;;;;;14.23;8.30;;;;;;;7.61;74.60;99301.94;4955249;28;97064;-86
2022/12/22 11:03:03;;;;;;;11.63;7.78;;;;;;;7.61;74.50;99317.59;4942377;28;102885;-84
2022/12/22 11:05:28;;;;;;;11.90;7.95;;;;;;;7.53;74.81;99311.81;4932278;28;101758;-85
2022/12/22 11:07:54;;;;;;;15.40;9.60;;;;;;;7.61;74.90;99316.75;4913656;28;96847;-84
2022/12/22 11:10:23;;;;;;;14.43;9.32;;;;;;;7.60;75.05;99318.53;4911982;28;98328;-84
2022/12/22 11:13:01;;;;;;;14.55;7.95;;;;;;;7.30;75.00;99270.06;4915571;28;101323;-84
2022/12/22 11:15:46;;;;;;;18.10;9.82;;;;;;;7.52;75.16;99315.34;4945124;28;97204;-84
2022/12/22 11:18:44;;;;;;;18.27;10.55;;;;;;;7.49;74.98;99313.69;4923265;28;97751;-85
2022/12/22 11:21:18;;;;;;;13.05;8.02;;;;;;;7.41;75.42;99305.28;4902120;28;97492;-84
2022/12/22 11:23:58;;;;;;;13.32;8.10;;;;;;;7.47;75.13;99305.06;4932944;28;97641;-83
2022/12/22 11:26:44;;;;;;;16.80;10.07;;;;;;;7.38;75.06;99284.53;4947781;28;98197;-83
2022/12/22 11:29:44;;;;;;;22.55;12.13;;;;;;;7.46;75.24;99295.53;4939038;28;98369;-82
2022/12/22 11:32:28;;;;;;;23.17;10.90;;;;;;;7.45;75.76;99299.06;4954099;28;97200;-81
2022/12/22 11:34:54;;;;;;;21.60;10.25;;;;;;;7.44;75.64;99291.28;4931361;28;97509;-82
2022/12/22 11:37:25;;;;;;;19.83;11.13;;;;;;;7.39;75.74;99286.25;4945695;28;100974;-84
2022/12/22 11:40:09;;;;;;;44.22;18.00;;;;;;;7.39;76.18;99281.03;4956390;28;98935;-83
2022/12/22 11:43:32;;;;;;;123.63;49.45;;;;;;;7.36;76.40;99275.03;4934658;28;97119;-82
2022/12/22 11:46:03;;;;;;;57.05;27.35;;;;;;;7.39;76.51;99278.41;4904826;28;99318;-82
2022/12/22 11:48:35;;;;;;;71.72;33.00;;;;;;;7.33;76.09;99246.44;4908965;28;101435;-82
2022/12/22 11:51:15;;;;;;;21.52;12.55;;;;;;;7.41;76.09;99250.47;4920261;28;97332;-82
2022/12/22 11:54:11;;;;;;;19.98;12.10;;;;;;;7.47;76.33;99252.84;4938194;28;97016;-84
2022/12/22 11:56:40;;;;;;;21.45;12.05;;;;;;;7.55;76.00;99243.88;4942790;28;99617;-82
2022/12/22 11:59:34;;;;;;;17.35;10.80;;;;;;;7.60;75.64;99241.94;4902015;28;101145;-81
2022/12/22 12:02:21;;;;;;;25.80;13.35;;;;;;;7.61;75.49;99234.03;4942848;28;97113;-82
2022/12/22 12:05:02;;;;;;;14.65;8.95;;;;;;;7.51;75.53;99203.97;4960196;28;97407;-81
2022/12/22 12:07:35;;;;;;;20.58;10.75;;;;;;;7.69;75.18;99225.91;4922958;28;101884;-82
2022/12/22 12:10:26;;;;;;;13.70;7.72;;;;;;;7.66;75.13;99208.59;4929825;28;101571;-82
2022/12/22 12:13:10;;;;;;;10.90;7.43;;;;;;;7.69;75.59;99216.31;4917565;28;97498;-83
2022/12/22 12:15:40;;;;;;;15.63;10.20;;;;;;;7.67;75.80;99198.97;4902427;28;97252;-81
2022/12/22 12:18:43;;;;;;;8.32;5.88;;;;;;;7.70;75.87;99188.41;4936750;28;101720;-81
2022/12/22 12:21:20;;;;;;;9.90;5.78;;;;;;;7.80;75.39;99202.81;4910357;28;101264;-83
2022/12/22 12:24:21;;;;;;;8.43;5.85;;;;;;;7.81;75.17;99201.91;4918919;28;97206;-82
2022/12/22 12:27:02;;;;;;;12.10;7.20;;;;;;;7.85;75.14;99213.94;4917358;28;97270;-86
2022/12/22 12:29:33;;;;;;;11.02;6.85;;;;;;;7.94;74.51;99224.00;4943179;28;100870;-83
2022/12/22 12:32:00;;;;;;;11.45;6.88;;;;;;;8.01;75.04;99214.16;4927670;28;101276;-83
2022/12/22 12:34:26;;;;;;;29.80;13.48;;;;;;;8.01;74.67;99197.63;4948993;28;97350;-83
2022/12/22 12:36:56;;;;;;;13.40;7.00;;;;;;;8.01;74.83;99205.47;4949643;28;98412;-85
2022/12/22 12:39:43;;;;;;;10.65;7.05;;;;;;;8.06;74.98;99199.13;4929187;28;97935;-85
2022/12/22 12:42:39;;;;;;;8.20;6.22;;;;;;;8.12;74.38;99203.25;4921550;28;101892;-91
2022/12/22 12:45:32;;;;;;;14.70;7.05;;;;;;;8.19;74.54;99206.47;4921230;28;97907;-84
2022/12/22 12:48:20;;;;;;;24.05;12.27;;;;;;;8.24;74.02;99201.91;4941366;28;97624;-85
2022/12/22 12:50:47;;;;;;;22.75;13.05;;;;;;;8.25;74.16;99199.19;4949575;28;101192;-84
2022/12/22 12:53:13;;;;;;;16.08;9.40;;;;;;;8.24;74.65;99192.28;4915740;28;98114;-84
2022/12/22 12:55:38;;;;;;;15.75;9.05;;;;;;;8.30;74.59;99201.63;4908981;28;97880;-82
2022/12/22 12:58:07;;;;;;;15.10;9.13;;;;;;;8.34;74.24;99182.28;4917623;28;97278;-83
2022/12/22 13:00:33;;;;;;;12.00;5.35;;;;;;;8.28;74.08;99174.69;4928645;28;102088;-84
2022/12/22 13:02:59;;;;;;;7.60;4.40;;;;;;;8.39;73.92;99175.97;4911470;28;101209;-85
2022/12/22 13:05:35;;;;;;;6.47;4.38;;;;;;;8.30;73.85;99159.81;4914175;28;96789;-82
2022/12/22 13:08:15;;;;;;;7.40;4.38;;;;;;;8.45;73.65;99185.31;4921032;28;97257;-84
2022/12/22 13:10:53;;;;;;;12.40;7.25;;;;;;;8.44;74.24;99186.25;4957991;28;101851;-84
2022/12/22 13:13:21;;;;;;;17.85;9.30;;;;;;;8.45;74.25;99181.84;4949265;28;101392;-83
2022/12/22 13:16:10;;;;;;;13.00;6.72;;;;;;;8.45;73.85;99181.84;4930150;28;97794;-83
2022/12/22 13:18:42;;;;;;;8.52;5.78;;;;;;;8.44;74.34;99181.00;4924769;28;97362;-83
2022/12/22 13:21:13;;;;;;;10.07;5.70;;;;;;;8.25;74.36;99149.53;4902295;28;101341;-86
2022/12/22 13:23:54;;;;;;;11.48;6.97;;;;;;;8.45;73.87;99172.25;4916699;28;101473;-83
2022/12/22 13:26:26;;;;;;;8.93;5.75;;;;;;;8.53;73.81;99177.16;4926585;28;97664;-82
2022/12/22 13:28:57;;;;;;;7.68;5.43;;;;;;;8.55;73.40;99178.78;4962869;28;99738;-82
2022/12/22 13:31:44;;;;;;;9.83;5.97;;;;;;;8.54;73.45;99173.59;4953813;28;101209;-83
2022/12/22 13:34:36;;;;;;;8.52;5.55;;;;;;;8.61;73.80;99173.28;4921359;28;101616;-83
2022/12/22 13:37:12;;;;;;;7.20;5.25;;;;;;;8.61;73.27;99169.81;4945919;28;97141;-82
2022/12/22 13:39:37;;;;;;;9.40;5.68;;;;;;;8.65;73.28;99176.59;4939768;28;96777;-83
2022/12/22 13:42:04;;;;;;;7.32;4.50;;;;;;;8.52;72.82;99155.38;4900956;28;101139;-82
2022/12/22 13:44:32;;;;;;;8.95;5.50;;;;;;;8.63;73.07;99167.97;4944311;28;101523;-82
2022/12/22 13:47:06;;;;;;;13.35;7.82;;;;;;;8.60;73.22;99161.09;4933572;28;97670;-83
2022/12/22 13:49:33;;;;;;;9.68;5.97;;;;;;;8.56;72.95;99158.69;4918163;28;96723;-84
2022/12/22 13:52:00;;;;;;;12.75;6.60;;;;;;;8.56;73.34;99169.16;4924833;28;100855;-85
2022/12/22 13:54:34;;;;;;;14.50;8.30;;;;;;;8.58;73.92;99175.16;4916225;28;100929;-86
2022/12/22 13:57:00;;;;;;;57.88;24.33;;;;;;;8.44;72.94;99162.69;4922050;28;96776;-85
2022/12/22 13:59:29;;;;;;;26.95;12.85;;;;;;;8.35;73.27;99160.47;4923200;28;97040;-86
2022/12/22 14:02:00;;;;;;;21.42;12.10;;;;;;;8.39;73.59;99157.66;4941938;28;101719;-84
2022/12/22 14:04:26;;;;;;;22.23;11.98;;;;;;;8.35;73.19;99147.38;4926588;28;101323;-84
2022/12/22 14:06:53;;;;;;;22.60;11.32;;;;;;;8.43;73.63;99144.44;4915114;28;97349;-87
2022/12/22 14:09:20;;;;;;;23.95;13.07;;;;;;;8.41;73.43;99147.16;4951288;28;97176;-85
2022/12/22 14:11:56;;;;;;;35.38;19.17;;;;;;;8.41;73.16;99141.03;4970985;28;101824;-84
2022/12/22 14:14:34;;;;;;;35.67;17.13;;;;;;;8.28;73.54;99125.03;4935839;28;100779;-86
2022/12/22 14:17:00;;;;;;;14.95;8.48;;;;;;;8.41;73.18;99154.13;4948288;28;97316;-84
2022/12/22 14:19:29;;;;;;;19.67;9.73;;;;;;;8.31;73.07;99128.34;4946033;28;97132;-84
2022/12/22 14:22:15;;;;;;;18.48;9.88;;;;;;;8.22;73.19;99133.97;4929264;28;101286;-84
2022/12/22 14:24:43;;;;;;;19.38;10.27;;;;;;;8.39;73.44;99151.59;4948525;28;101395;-84
2022/12/22 14:27:19;;;;;;;18.50;8.98;;;;;;;8.40;73.57;99145.44;4920822;28;96779;-85
2022/12/22 14:29:45;;;;;;;36.30;18.88;;;;;;;8.43;73.52;99149.69;4911476;28;97279;-85
2022/12/22 14:32:11;;;;;;;28.40;15.07;;;;;;;8.41;73.34;99141.91;4945030;28;97471;-85
2022/12/22 14:34:37;;;;;;;14.05;8.93;;;;;;;8.36;73.38;99128.16;4964474;28;97978;-82
2022/12/22 14:37:02;;;;;;;13.73;6.65;;;;;;;8.53;72.90;99156.22;4942167;28;97307;-84
2022/12/22 14:39:30;;;;;;;14.68;8.32;;;;;;;8.43;72.87;99128.75;4963968;28;96942;-89
2022/12/22 14:42:01;;;;;;;19.10;10.20;;;;;;;8.60;73.08;99149.78;4945532;28;101755;-84
2022/12/22 14:44:35;;;;;;;10.98;6.00;;;;;;;8.64;72.71;99146.13;4940850;28;98108;-88
2022/12/22 14:47:13;;;;;;;5.40;3.00;;;;;;;8.69;73.05;99154.59;4964221;28;97313;-87
2022/12/22 14:49:49;;;;;;;9.88;5.30;;;;;;;8.73;72.70;99158.81;4921038;28;96857;-87
2022/12/22 14:52:36;;;;;;;4.75;3.50;;;;;;;8.78;72.42;99158.56;4930812;28;99855;-86
2022/12/22 14:55:36;;;;;;;5.38;3.50;;;;;;;8.73;72.21;99153.56;4956794;28;98419;-86
2022/12/22 14:58:14;;;;;;;4.63;2.70;;;;;;;8.75;72.04;99148.25;4926132;28;97232;-86
2022/12/22 15:01:18;;;;;;;5.15;2.42;;;;;;;8.75;71.82;99151.72;4943105;28;96852;-87
2022/12/22 15:04:20;;;;;;;4.75;2.75;;;;;;;8.73;72.22;99152.72;4941381;28;98601;-89
2022/12/22 15:06:47;;;;;;;4.97;2.90;;;;;;;8.76;71.89;99147.34;4928962;28;99607;-88
2022/12/22 15:09:12;;;;;;;3.97;2.72;;;;;;;8.84;71.89;99161.78;4950253;28;96759;-86
2022/12/22 15:11:44;;;;;;;3.92;2.75;;;;;;;8.81;72.31;99161.94;4930489;28;97057;-89
2022/12/22 15:14:14;;;;;;;5.30;3.55;;;;;;;8.82;72.00;99160.16;4946368;28;101192;-86
2022/12/22 15:16:40;;;;;;;4.70;3.40;;;;;;;8.80;72.13;99143.66;4936492;28;101865;-86
2022/12/22 15:19:06;;;;;;;4.63;2.85;;;;;;;8.74;72.22;99133.47;4928124;28;97072;-86
2022/12/22 15:21:33;;;;;;;4.50;3.03;;;;;;;8.86;71.93;99148.63;4950432;28;96856;-88
2022/12/22 15:23:58;;;;;;;4.80;3.15;;;;;;;8.86;72.87;99145.16;4914985;28;100234;-86
2022/12/22 15:26:24;;;;;;;5.55;3.20;;;;;;;8.88;72.19;99143.31;4949395;28;98071;-84